sensor_id;sensor_type;location;lat;lon;timestamp;temperature;humidity
46335;DHT22;32051;48.882;9.210;2023-05-10T09:23:23;16.50;99.90
46335;DHT22;32051;48.882;9.210;2023-05-10T09:26:06;16.40;99.90
46335;DHT22;32051;48.882;9.210;2023-05-10T09:28:33;16.40;99.90
46335;DHT22;32051;48.882;9.210;2023-05-10T09:31:00;16.40;99.90
46335;DHT22;32051;48.882;9.210;2023-05-10T09:33:25;16.50;99.90
46335;DHT22;32051;48.882;9.210;2023-05-10T09:35:54;16.40;99.90
46335;DHT22;32051;48.882;9.210;2023-05-10T09:38:20;16.50;99.90
46335;DHT22;32051;48.882;9.210;2023-05-10T09:40:52;16.60;99.90
46335;DHT22;32051;48.882;9.210;2023-05-10T09:43:21;16.60;99.90
46335;DHT22;32051;48.882;9.210;2023-05-10T09:45:48;16.70;99.90
46335;DHT22;32051;48.882;9.210;2023-05-10T09:48:15;17.00;99.90
46335;DHT22;32051;48.882;9.210;2023-05-10T09:50:41;17.20;99.90
46335;DHT22;32051;48.882;9.210;2023-05-10T09:53:07;17.40;99.90
46335;DHT22;32051;48.882;9.210;2023-05-10T09:58:01;17.40;99.90
46335;DHT22;32051;48.882;9.210;2023-05-10T10:00:29;17.50;99.90
46335;DHT22;32051;48.882;9.210;2023-05-10T10:03:00;17.50;99.90
46335;DHT22;32051;48.882;9.210;2023-05-10T10:05:32;17.40;99.90
46335;DHT22;32051;48.882;9.210;2023-05-10T10:08:00;17.30;99.90
46335;DHT22;32051;48.882;9.210;2023-05-10T10:10:27;17.10;99.90
46335;DHT22;32051;48.882;9.210;2023-05-10T10:12:54;17.00;99.90
46335;DHT22;32051;48.882;9.210;2023-05-10T10:15:24;16.90;99.90
46335;DHT22;32051;48.882;9.210;2023-05-10T10:17:51;16.70;99.90
46335;DHT22;32051;48.882;9.210;2023-05-10T10:20:18;16.60;99.90
46335;DHT22;32051;48.882;9.210;2023-05-10T10:25:12;16.30;99.90
46335;DHT22;32051;48.882;9.210;2023-05-10T11:02:51;16.70;99.90
46335;DHT22;32051;48.882;9.210;2023-05-10T11:05:24;16.70;99.90
46335;DHT22;32051;48.882;9.210;2023-05-10T11:07:57;16.60;99.90
46335;DHT22;32051;48.882;9.210;2023-05-10T11:10:24;16.60;99.90
46335;DHT22;32051;48.882;9.210;2023-05-10T11:12:58;16.50;99.90
46335;DHT22;32051;48.882;9.210;2023-05-10T11:15:39;16.50;99.90
46335;DHT22;32051;48.882;9.210;2023-05-10T11:18:27;16.50;99.90
46335;DHT22;32051;48.882;9.210;2023-05-10T11:20:56;16.50;99.90
46335;DHT22;32051;48.882;9.210;2023-05-10T11:23:28;16.60;99.90
46335;DHT22;32051;48.882;9.210;2023-05-10T11:25:54;16.70;99.90
46335;DHT22;32051;48.882;9.210;2023-05-10T11:30:46;17.30;99.90
46335;DHT22;32051;48.882;9.210;2023-05-10T11:33:19;17.50;99.90
46335;DHT22;32051;48.882;9.210;2023-05-10T11:35:45;17.80;99.90
46335;DHT22;32051;48.882;9.210;2023-05-10T11:38:12;18.20;99.90
46335;DHT22;32051;48.882;9.210;2023-05-10T11:40:39;18.50;99.90
46335;DHT22;32051;48.882;9.210;2023-05-10T11:43:05;18.70;99.90
46335;DHT22;32051;48.882;9.210;2023-05-10T11:45:34;18.60;99.90
46335;DHT22;32051;48.882;9.210;2023-05-10T11:48:01;18.30;99.90
46335;DHT22;32051;48.882;9.210;2023-05-10T11:50:27;18.00;99.90
46335;DHT22;32051;48.882;9.210;2023-05-10T11:52:53;17.90;99.90
46335;DHT22;32051;48.882;9.210;2023-05-10T11:55:19;17.80;99.90
46335;DHT22;32051;48.882;9.210;2023-05-10T11:57:45;17.70;99.90
46335;DHT22;32051;48.882;9.210;2023-05-10T12:25:12;16.60;99.90
46335;DHT22;32051;48.882;9.210;2023-05-10T12:27:38;16.50;99.90
46335;DHT22;32051;48.882;9.210;2023-05-10T13:02:06;16.90;99.90
46335;DHT22;32051;48.882;9.210;2023-05-10T13:04:31;16.90;99.90
46335;DHT22;32051;48.882;9.210;2023-05-10T13:06:57;17.00;99.90
46335;DHT22;32051;48.882;9.210;2023-05-10T13:09:27;17.20;99.90
46335;DHT22;32051;48.882;9.210;2023-05-10T13:11:54;17.20;99.90
46335;DHT22;32051;48.882;9.210;2023-05-10T13:14:20;17.40;99.90
46335;DHT22;32051;48.882;9.210;2023-05-10T13:16:47;17.40;99.90
46335;DHT22;32051;48.882;9.210;2023-05-10T13:19:13;17.30;99.90
46335;DHT22;32051;48.882;9.210;2023-05-10T13:21:39;17.40;99.90
46335;DHT22;32051;48.882;9.210;2023-05-10T13:24:07;17.30;99.90
46335;DHT22;32051;48.882;9.210;2023-05-10T13:26:33;17.30;99.90
46335;DHT22;32051;48.882;9.210;2023-05-10T13:28:58;17.40;99.90
46335;DHT22;32051;48.882;9.210;2023-05-10T13:31:24;17.40;99.90
46335;DHT22;32051;48.882;9.210;2023-05-10T13:33:50;17.20;99.90
46335;DHT22;32051;48.882;9.210;2023-05-10T13:36:16;17.00;99.90
46335;DHT22;32051;48.882;9.210;2023-05-10T13:38:42;16.90;99.90
46335;DHT22;32051;48.882;9.210;2023-05-10T13:41:07;16.90;99.90
46335;DHT22;32051;48.882;9.210;2023-05-10T13:43:33;16.90;99.90
46335;DHT22;32051;48.882;9.210;2023-05-10T13:45:59;16.80;99.90
46335;DHT22;32051;48.882;9.210;2023-05-10T13:48:24;16.90;99.90
46335;DHT22;32051;48.882;9.210;2023-05-10T13:50:50;16.90;99.90
46335;DHT22;32051;48.882;9.210;2023-05-10T13:53:16;16.90;99.90
46335;DHT22;32051;48.882;9.210;2023-05-10T13:55:41;16.90;99.90
46335;DHT22;32051;48.882;9.210;2023-05-10T13:58:07;17.00;99.90
46335;DHT22;32051;48.882;9.210;2023-05-10T14:00:33;17.10;99.90
46335;DHT22;32051;48.882;9.210;2023-05-10T14:02:59;17.10;99.90
46335;DHT22;32051;48.882;9.210;2023-05-10T14:05:24;17.20;99.90
46335;DHT22;32051;48.882;9.210;2023-05-10T14:07:50;17.20;99.90
46335;DHT22;32051;48.882;9.210;2023-05-10T14:10:16;17.20;99.90
46335;DHT22;32051;48.882;9.210;2023-05-10T14:12:42;17.20;99.90
46335;DHT22;32051;48.882;9.210;2023-05-10T14:15:07;17.20;99.90
46335;DHT22;32051;48.882;9.210;2023-05-10T14:17:35;17.20;99.90
46335;DHT22;32051;48.882;9.210;2023-05-10T14:20:01;17.20;99.90
46335;DHT22;32051;48.882;9.210;2023-05-10T14:22:27;17.20;99.90
46335;DHT22;32051;48.882;9.210;2023-05-10T14:24:54;17.20;99.90
46335;DHT22;32051;48.882;9.210;2023-05-10T14:27:19;17.20;99.90
46335;DHT22;32051;48.882;9.210;2023-05-10T14:29:45;17.20;99.90
46335;DHT22;32051;48.882;9.210;2023-05-10T14:32:11;17.20;99.90
46335;DHT22;32051;48.882;9.210;2023-05-10T14:34:36;17.30;99.90
46335;DHT22;32051;48.882;9.210;2023-05-10T14:37:02;17.30;99.90
46335;DHT22;32051;48.882;9.210;2023-05-10T14:39:28;17.30;99.90
46335;DHT22;32051;48.882;9.210;2023-05-10T14:41:56;17.40;99.90
46335;DHT22;32051;48.882;9.210;2023-05-10T14:44:22;17.40;99.90
46335;DHT22;32051;48.882;9.210;2023-05-10T14:46:49;17.50;99.90
46335;DHT22;32051;48.882;9.210;2023-05-10T14:49:15;17.50;99.90
46335;DHT22;32051;48.882;9.210;2023-05-10T14:51:40;17.50;99.90
46335;DHT22;32051;48.882;9.210;2023-05-10T14:54:06;17.40;99.90
46335;DHT22;32051;48.882;9.210;2023-05-10T14:56:32;17.40;99.90
46335;DHT22;32051;48.882;9.210;2023-05-10T14:58:58;17.40;99.90
46335;DHT22;32051;48.882;9.210;2023-05-10T15:01:26;17.50;99.90
46335;DHT22;32051;48.882;9.210;2023-05-10T15:03:52;17.50;99.90
46335;DHT22;32051;48.882;9.210;2023-05-10T15:06:23;17.40;99.90
46335;DHT22;32051;48.882;9.210;2023-05-10T15:08:50;17.40;99.90
46335;DHT22;32051;48.882;9.210;2023-05-10T15:11:15;17.40;99.90
46335;DHT22;32051;48.882;9.210;2023-05-10T15:13:41;17.40;99.90
46335;DHT22;32051;48.882;9.210;2023-05-10T15:16:07;17.30;99.90
46335;DHT22;32051;48.882;9.210;2023-05-10T15:18:33;17.20;99.90
46335;DHT22;32051;48.882;9.210;2023-05-10T15:20:59;17.20;99.90
46335;DHT22;32051;48.882;9.210;2023-05-10T15:23:25;17.20;99.90
46335;DHT22;32051;48.882;9.210;2023-05-10T15:25:50;17.20;99.90
46335;DHT22;32051;48.882;9.210;2023-05-10T15:28:21;17.20;99.90
46335;DHT22;32051;48.882;9.210;2023-05-10T15:30:46;17.30;99.90
46335;DHT22;32051;48.882;9.210;2023-05-10T15:33:12;17.30;99.90
46335;DHT22;32051;48.882;9.210;2023-05-10T15:35:38;17.20;99.90
46335;DHT22;32051;48.882;9.210;2023-05-10T15:38:05;17.30;99.90
46335;DHT22;32051;48.882;9.210;2023-05-10T15:40:31;17.20;99.90
46335;DHT22;32051;48.882;9.210;2023-05-10T15:42:57;17.20;99.90
46335;DHT22;32051;48.882;9.210;2023-05-10T15:45:22;17.20;99.90
46335;DHT22;32051;48.882;9.210;2023-05-10T15:47:48;17.10;99.90
46335;DHT22;32051;48.882;9.210;2023-05-10T15:50:14;17.10;99.90
46335;DHT22;32051;48.882;9.210;2023-05-10T15:52:41;17.20;99.90
46335;DHT22;32051;48.882;9.210;2023-05-10T15:55:07;17.20;99.90
46335;DHT22;32051;48.882;9.210;2023-05-10T15:57:38;17.20;99.90
46335;DHT22;32051;48.882;9.210;2023-05-10T16:00:06;17.20;99.90
46335;DHT22;32051;48.882;9.210;2023-05-10T16:02:38;17.20;99.90
46335;DHT22;32051;48.882;9.210;2023-05-10T16:05:04;17.10;99.90
46335;DHT22;32051;48.882;9.210;2023-05-10T16:07:30;17.10;99.90
46335;DHT22;32051;48.882;9.210;2023-05-10T16:09:55;17.10;99.90
46335;DHT22;32051;48.882;9.210;2023-05-10T16:12:21;17.00;99.90
46335;DHT22;32051;48.882;9.210;2023-05-10T16:14:47;17.00;99.90
46335;DHT22;32051;48.882;9.210;2023-05-10T16:17:12;16.90;99.90
46335;DHT22;32051;48.882;9.210;2023-05-10T16:19:39;16.90;99.90
